Terminal Aerodrome Forecast
Issued by NWS Newport/Morehead City, NC

Home | Current Version | Previous Version | Graphics & Text | Print | Product List | Glossary On
Versions: 1 2 3 4 5 6 7 8 9 10 11 12 13 14 15 16 17 18 19
000
FTUS42 KMHX 162336
TAFEWN
TAF
KEWN 162336Z 1700/1724 35012G20KT P6SM SCT020 BKN040
     FM170300 03011KT P6SM VCSH OVC020
     FM170600 04011KT P6SM OVC020
     FM171200 04010KT P6SM SCT020 OVC035
     FM171800 07008KT P6SM VCSH OVC020
     FM172100 12006KT P6SM VCSH OVC008=

USA.gov is the U.S. government's official web portal to all federal, state and local government web resources and services.